Time;durP1;ratioP1;P1;durP2;ratioP2;P2;SDS_P1;SDS_P2;PMS_P1;PMS_P2;Temp;Humidity;BMP_temperature;BMP_pressure;BME280_temperature;BME280_humidity;BME280_pressure;Samples;Min_cycle;Max_cycle;Signal;HPM_P1;HPM_P2
2023/08/21 00:01:07;;;;;;;0.20;0.20;;;;;;;;;;5030963;28;20039;-73
2023/08/21 00:03:33;;;;;;;0.20;0.20;;;;;;;;;;5036869;28;20072;-74
2023/08/21 00:05:59;;;;;;;0.30;0.30;;;;;;;;;;5022552;28;20486;-75
2023/08/21 00:08:25;;;;;;;0.20;0.20;;;;;;;;;;5039535;28;20063;-74
2023/08/21 00:10:50;;;;;;;0.20;0.20;;;;;;;;;;5033726;28;20075;-74
2023/08/21 00:13:16;;;;;;;0.20;0.20;;;;;;;;;;5030906;28;20041;-74
2023/08/21 00:15:41;;;;;;;0.30;0.30;;;;;;;;;;5030929;28;20115;-74
2023/08/21 00:18:07;;;;;;;0.20;0.20;;;;;;;;;;5031085;28;20037;-74
2023/08/21 00:20:32;;;;;;;0.25;0.25;;;;;;;;;;5030960;28;20025;-73
2023/08/21 00:22:58;;;;;;;0.20;0.20;;;;;;;;;;5032382;28;20029;-74
2023/08/21 00:25:24;;;;;;;0.20;0.20;;;;;;;;;;5032555;28;20474;-74
2023/08/21 00:27:50;;;;;;;0.20;0.20;;;;;;;;;;5031225;28;20042;-73
2023/08/21 00:30:16;;;;;;;0.30;0.30;;;;;;;;;;5032544;28;20025;-73
2023/08/21 00:32:41;;;;;;;0.20;0.20;;;;;;;;;;5032611;28;20060;-73
2023/08/21 00:35:07;;;;;;;0.20;0.20;;;;;;;;;;5015148;28;20469;-73
2023/08/21 00:37:33;;;;;;;0.20;0.20;;;;;;;;;;5014561;28;20087;-73
2023/08/21 00:39:58;;;;;;;0.20;0.20;;;;;;;;;;5032307;28;20072;-73
2023/08/21 00:42:24;;;;;;;0.20;0.20;;;;;;;;;;5032779;28;20083;-73
2023/08/21 00:44:50;;;;;;;0.20;0.20;;;;;;;;;;5032562;28;20473;-74
2023/08/21 00:47:15;;;;;;;0.20;0.20;;;;;;;;;;5032316;28;20081;-73
2023/08/21 00:49:41;;;;;;;0.20;0.20;;;;;;;;;;5032731;28;20075;-73
2023/08/21 00:52:10;;;;;;;0.20;0.20;;;;;;;;;;5032241;28;20116;-74
2023/08/21 00:54:36;;;;;;;0.20;0.20;;;;;;;;;;5014719;28;20029;-73
2023/08/21 00:57:02;;;;;;;0.20;0.20;;;;;;;;;;5014548;28;20033;-74
2023/08/21 00:59:28;;;;;;;0.20;0.20;;;;;;;;;;5014803;28;20033;-73
2023/08/21 01:01:54;;;;;;;0.28;0.28;;;;;;;;;;5014424;28;20037;-72
2023/08/21 01:04:19;;;;;;;0.20;0.20;;;;;;;;;;5031996;28;20026;-73
2023/08/21 01:06:45;;;;;;;0.20;0.20;;;;;;;;;;5032120;28;20041;-73
2023/08/21 01:09:30;;;;;;;0.20;0.20;;;;;;;;;;5031158;28;20034;-74
2023/08/21 01:12:04;;;;;;;0.20;0.20;;;;;;;;;;5014445;28;20040;-72
2023/08/21 01:14:30;;;;;;;0.25;0.25;;;;;;;;;;5032357;28;20033;-73
2023/08/21 01:16:58;;;;;;;0.10;0.10;;;;;;;;;;5032357;28;20436;-72
2023/08/21 01:19:44;;;;;;;0.20;0.20;;;;;;;;;;5014246;28;20033;-73
2023/08/21 01:22:10;;;;;;;0.20;0.20;;;;;;;;;;5013737;28;20429;-73
2023/08/21 01:24:36;;;;;;;0.20;0.20;;;;;;;;;;5032203;28;20041;-73
2023/08/21 01:27:01;;;;;;;0.20;0.20;;;;;;;;;;5031876;28;20529;-73
2023/08/21 01:29:27;;;;;;;0.20;0.20;;;;;;;;;;5014313;28;20485;-74
2023/08/21 01:32:09;;;;;;;0.22;0.22;;;;;;;;;;5031845;28;20084;-73
2023/08/21 01:34:37;;;;;;;0.20;0.20;;;;;;;;;;5014297;28;20041;-73
2023/08/21 01:37:03;;;;;;;0.20;0.20;;;;;;;;;;5033724;28;20043;-73
2023/08/21 01:39:29;;;;;;;0.20;0.20;;;;;;;;;;5035078;28;20485;-73
2023/08/21 01:41:56;;;;;;;0.20;0.20;;;;;;;;;;5035110;28;20083;-73
2023/08/21 01:44:21;;;;;;;0.20;0.20;;;;;;;;;;5033716;28;20151;-73
2023/08/21 01:46:47;;;;;;;0.20;0.20;;;;;;;;;;5034868;28;20381;-74
2023/08/21 01:49:14;;;;;;;1.58;1.55;;;;;;;;;;5017312;28;20029;-73
2023/08/21 01:51:39;;;;;;;0.20;0.20;;;;;;;;;;5035121;28;20037;-73
2023/08/21 01:54:05;;;;;;;0.20;0.20;;;;;;;;;;5033644;28;20087;-74
2023/08/21 01:56:30;;;;;;;0.20;0.20;;;;;;;;;;5033585;28;20033;-73
2023/08/21 01:58:56;;;;;;;0.20;0.20;;;;;;;;;;5016987;28;20385;-73
2023/08/21 02:01:23;;;;;;;0.17;0.17;;;;;;;;;;5034808;28;20526;-75
2023/08/21 02:03:48;;;;;;;0.20;0.20;;;;;;;;;;5017234;28;20041;-73
2023/08/21 02:06:14;;;;;;;0.20;0.20;;;;;;;;;;5034855;28;20409;-74
2023/08/21 02:08:40;;;;;;;0.20;0.20;;;;;;;;;;5034587;28;20076;-72
2023/08/21 02:11:05;;;;;;;0.20;0.20;;;;;;;;;;5034882;28;20037;-72
2023/08/21 02:13:32;;;;;;;0.38;0.38;;;;;;;;;;5033291;28;20042;-72
2023/08/21 02:15:58;;;;;;;0.30;0.30;;;;;;;;;;5016910;28;20106;-73
2023/08/21 02:18:24;;;;;;;0.30;0.30;;;;;;;;;;5034429;28;20069;-73
2023/08/21 02:20:49;;;;;;;0.20;0.20;;;;;;;;;;5034639;28;20485;-72
2023/08/21 02:23:15;;;;;;;0.20;0.20;;;;;;;;;;5034333;28;20441;-74
2023/08/21 02:25:41;;;;;;;0.20;0.20;;;;;;;;;;5033169;28;20132;-74
2023/08/21 02:28:07;;;;;;;0.20;0.20;;;;;;;;;;5034265;28;20037;-73
2023/08/21 02:30:33;;;;;;;0.10;0.10;;;;;;;;;;5033202;28;20044;-73
2023/08/21 02:32:58;;;;;;;0.22;0.22;;;;;;;;;;5034382;28;20436;-73
2023/08/21 02:35:24;;;;;;;0.20;0.20;;;;;;;;;;5000542;28;20045;-72
2023/08/21 02:37:50;;;;;;;0.20;0.20;;;;;;;;;;5034233;28;20033;-73
2023/08/21 02:40:15;;;;;;;0.20;0.20;;;;;;;;;;5034188;28;20044;-73
2023/08/21 02:42:41;;;;;;;0.20;0.20;;;;;;;;;;5034000;28;20052;-72
2023/08/21 02:45:10;;;;;;;0.20;0.20;;;;;;;;;;5034526;28;20037;-72
2023/08/21 02:47:35;;;;;;;;;;;;;;;;;;5033406;28;20048;-72
2023/08/21 02:50:02;;;;;;;1.55;1.42;;;;;;;;;;5032694;28;19913;-75
2023/08/21 02:52:27;;;;;;;0.30;0.30;;;;;;;;;;5034038;28;20429;-74
2023/08/21 02:54:53;;;;;;;0.20;0.20;;;;;;;;;;5033932;28;20072;-73
2023/08/21 02:57:19;;;;;;;0.30;0.30;;;;;;;;;;5033854;28;20029;-74
2023/08/21 02:59:44;;;;;;;0.20;0.20;;;;;;;;;;5033943;28;20485;-74
2023/08/21 03:02:10;;;;;;;0.28;0.28;;;;;;;;;;5013527;28;20037;-74
2023/08/21 03:04:36;;;;;;;0.20;0.20;;;;;;;;;;5029845;28;20044;-75
2023/08/21 03:07:02;;;;;;;0.20;0.20;;;;;;;;;;5029878;28;20037;-76
2023/08/21 03:09:28;;;;;;;0.20;0.20;;;;;;;;;;5030026;28;20033;-76
2023/08/21 03:11:53;;;;;;;0.10;0.10;;;;;;;;;;5029970;28;20140;-73
2023/08/21 03:14:19;;;;;;;0.20;0.20;;;;;;;;;;5012127;28;20040;-73
2023/08/21 03:16:44;;;;;;;0.10;0.10;;;;;;;;;;5029866;28;20045;-74
2023/08/21 03:19:10;;;;;;;0.10;0.10;;;;;;;;;;5011611;28;20473;-75
2023/08/21 03:21:36;;;;;;;0.13;0.13;;;;;;;;;;5012348;28;20497;-73
2023/08/21 03:24:02;;;;;;;1.17;0.55;;;;;;;;;;5029733;28;20111;-74
2023/08/21 03:26:28;;;;;;;0.20;0.20;;;;;;;;;;5029573;28;20099;-76
2023/08/21 03:28:54;;;;;;;1.00;0.90;;;;;;;;;;5011847;28;20084;-74
2023/08/21 03:31:20;;;;;;;0.20;0.20;;;;;;;;;;5011810;28;20065;-73
2023/08/21 03:33:46;;;;;;;0.20;0.20;;;;;;;;;;5029173;28;20096;-75
2023/08/21 03:36:13;;;;;;;0.20;0.20;;;;;;;;;;5011628;28;20033;-73
2023/08/21 03:38:40;;;;;;;0.10;0.10;;;;;;;;;;5029384;28;20041;-73
2023/08/21 03:41:06;;;;;;;0.10;0.10;;;;;;;;;;5011631;28;20440;-73
2023/08/21 03:43:33;;;;;;;0.20;0.20;;;;;;;;;;5029579;28;20078;-73
2023/08/21 03:45:59;;;;;;;0.20;0.20;;;;;;;;;;5011076;28;20037;-72
2023/08/21 03:48:25;;;;;;;0.20;0.20;;;;;;;;;;5011520;28;20401;-75
2023/08/21 03:50:51;;;;;;;0.30;0.30;;;;;;;;;;5028007;28;20868;-73
2023/08/21 03:53:17;;;;;;;0.20;0.20;;;;;;;;;;5010526;28;20190;-74
2023/08/21 03:55:43;;;;;;;0.20;0.20;;;;;;;;;;5027994;28;20040;-76
2023/08/21 03:58:09;;;;;;;0.20;0.20;;;;;;;;;;5026495;28;20400;-74
2023/08/21 04:00:34;;;;;;;0.20;0.20;;;;;;;;;;5009871;28;20025;-73
2023/08/21 04:03:00;;;;;;;0.20;0.20;;;;;;;;;;5009716;28;20040;-74
2023/08/21 04:05:27;;;;;;;0.20;0.20;;;;;;;;;;5009495;28;20056;-75
2023/08/21 04:07:52;;;;;;;0.20;0.20;;;;;;;;;;5028614;28;20126;-75
2023/08/21 04:10:19;;;;;;;0.20;0.20;;;;;;;;;;5011600;28;20041;-74
2023/08/21 04:12:44;;;;;;;0.20;0.20;;;;;;;;;;4994388;28;20048;-74
2023/08/21 04:15:10;;;;;;;0.30;0.30;;;;;;;;;;5028758;28;20090;-74
2023/08/21 04:17:37;;;;;;;0.13;0.13;;;;;;;;;;5010498;28;20103;-74
2023/08/21 04:20:02;;;;;;;0.20;0.20;;;;;;;;;;5011011;28;20112;-73
2023/08/21 04:22:28;;;;;;;0.20;0.20;;;;;;;;;;5028456;28;20877;-74
2023/08/21 04:24:53;;;;;;;0.20;0.20;;;;;;;;;;5028683;28;20041;-73
2023/08/21 04:27:19;;;;;;;0.20;0.20;;;;;;;;;;5028693;28;20073;-77
2023/08/21 04:29:45;;;;;;;0.13;0.13;;;;;;;;;;5028347;28;20034;-75
2023/08/21 04:32:12;;;;;;;0.20;0.20;;;;;;;;;;5028436;28;20120;-73
2023/08/21 04:34:38;;;;;;;0.20;0.20;;;;;;;;;;5010828;28;20044;-74
2023/08/21 04:37:04;;;;;;;0.20;0.20;;;;;;;;;;5010722;28;20833;-74
2023/08/21 04:39:31;;;;;;;0.20;0.20;;;;;;;;;;5027090;28;20045;-74
2023/08/21 04:41:57;;;;;;;0.20;0.20;;;;;;;;;;5010411;28;20036;-73
2023/08/21 04:44:22;;;;;;;0.20;0.20;;;;;;;;;;5010327;28;20041;-73
2023/08/21 04:46:51;;;;;;;0.20;0.20;;;;;;;;;;5028398;28;20037;-74
2023/08/21 04:49:17;;;;;;;0.20;0.20;;;;;;;;;;5010743;28;20519;-74
2023/08/21 04:51:42;;;;;;;0.20;0.20;;;;;;;;;;5027753;28;20026;-76
2023/08/21 04:54:08;;;;;;;0.20;0.20;;;;;;;;;;5010558;28;20100;-74
2023/08/21 04:56:33;;;;;;;0.20;0.20;;;;;;;;;;5028568;28;20041;-75
2023/08/21 04:58:59;;;;;;;0.20;0.20;;;;;;;;;;5028123;28;20064;-75
2023/08/21 05:01:27;;;;;;;0.20;0.20;;;;;;;;;;5010906;28;20089;-75
2023/08/21 05:03:54;;;;;;;0.20;0.20;;;;;;;;;;5028472;28;20045;-74
2023/08/21 05:06:20;;;;;;;0.20;0.20;;;;;;;;;;5010355;28;20096;-73
2023/08/21 05:08:46;;;;;;;0.25;0.25;;;;;;;;;;5028519;28;20030;-73
2023/08/21 05:11:11;;;;;;;0.20;0.20;;;;;;;;;;5011705;28;20034;-76
2023/08/21 05:13:39;;;;;;;0.20;0.20;;;;;;;;;;5015189;28;20095;-74
2023/08/21 05:16:08;;;;;;;0.20;0.20;;;;;;;;;;5033847;28;20038;-75
2023/08/21 05:18:36;;;;;;;0.20;0.20;;;;;;;;;;5039521;28;20041;-73
2023/08/21 05:21:02;;;;;;;0.20;0.20;;;;;;;;;;5039965;28;20029;-75
2023/08/21 05:23:28;;;;;;;0.22;0.22;;;;;;;;;;5021975;28;20044;-76
2023/08/21 05:25:59;;;;;;;0.30;0.30;;;;;;;;;;5031723;28;20037;-75
2023/08/21 05:28:25;;;;;;;0.30;0.30;;;;;;;;;;5031744;28;20036;-76
2023/08/21 05:30:50;;;;;;;0.20;0.20;;;;;;;;;;5031787;28;20389;-76
2023/08/21 05:33:18;;;;;;;0.10;0.10;;;;;;;;;;5013800;28;20041;-78
2023/08/21 05:35:45;;;;;;;0.20;0.20;;;;;;;;;;5031088;28;20096;-74
2023/08/21 05:38:10;;;;;;;0.50;0.50;;;;;;;;;;5031642;28;20033;-74
2023/08/21 05:40:36;;;;;;;0.30;0.30;;;;;;;;;;5013600;28;20029;-73
2023/08/21 05:43:02;;;;;;;0.20;0.20;;;;;;;;;;5030900;28;20037;-75
2023/08/21 05:45:27;;;;;;;0.20;0.20;;;;;;;;;;5031431;28;20060;-74
2023/08/21 05:47:53;;;;;;;0.20;0.20;;;;;;;;;;5013214;28;20041;-74
2023/08/21 05:50:19;;;;;;;0.20;0.20;;;;;;;;;;5031044;28;20040;-74
2023/08/21 05:52:44;;;;;;;0.30;0.30;;;;;;;;;;5031132;28;20033;-75
2023/08/21 05:55:10;;;;;;;0.20;0.20;;;;;;;;;;5031251;28;20021;-73
2023/08/21 05:57:37;;;;;;;0.20;0.20;;;;;;;;;;5030272;28;20404;-75
2023/08/21 06:00:05;;;;;;;0.20;0.20;;;;;;;;;;5013136;28;20481;-74
2023/08/21 06:02:42;;;;;;;1.20;1.10;;;;;;;;;;5030204;28;20080;-72
2023/08/21 06:05:09;;;;;;;0.30;0.30;;;;;;;;;;5013273;28;20447;-73
2023/08/21 06:07:34;;;;;;;0.30;0.30;;;;;;;;;;5013330;28;20037;-75
2023/08/21 06:10:00;;;;;;;0.30;0.30;;;;;;;;;;5030952;28;20052;-74
2023/08/21 06:12:26;;;;;;;0.20;0.20;;;;;;;;;;5013079;28;20074;-74
2023/08/21 06:14:54;;;;;;;0.20;0.20;;;;;;;;;;5012861;28;20056;-74
2023/08/21 06:17:19;;;;;;;0.40;0.40;;;;;;;;;;5033971;28;20488;-73
2023/08/21 06:19:45;;;;;;;0.30;0.30;;;;;;;;;;5025084;28;20053;-73
2023/08/21 06:22:10;;;;;;;0.38;0.38;;;;;;;;;;5041887;28;20033;-73
2023/08/21 06:24:36;;;;;;;0.25;0.25;;;;;;;;;;5030410;28;20099;-74
2023/08/21 06:27:04;;;;;;;2.57;2.37;;;;;;;;;;5012746;28;20045;-75
2023/08/21 06:29:30;;;;;;;0.40;0.40;;;;;;;;;;5012354;28;20540;-73
2023/08/21 06:31:56;;;;;;;0.75;0.75;;;;;;;;;;5030163;28;20068;-75
2023/08/21 06:34:23;;;;;;;3.35;3.15;;;;;;;;;;5012842;28;20076;-74
2023/08/21 06:36:48;;;;;;;0.32;0.32;;;;;;;;;;5030364;28;20031;-73
2023/08/21 06:39:14;;;;;;;0.32;0.32;;;;;;;;;;5029911;28;20038;-73
2023/08/21 06:41:40;;;;;;;0.93;0.93;;;;;;;;;;5030148;28;20033;-74
2023/08/21 06:44:05;;;;;;;0.32;0.32;;;;;;;;;;5029844;28;20103;-75
2023/08/21 06:46:34;;;;;;;0.30;0.30;;;;;;;;;;5012267;28;20037;-74
2023/08/21 06:49:02;;;;;;;0.40;0.40;;;;;;;;;;5030099;28;20056;-74
2023/08/21 06:51:28;;;;;;;1.48;1.38;;;;;;;;;;5029974;28;20034;-72
2023/08/21 06:53:53;;;;;;;0.38;0.38;;;;;;;;;;5030134;28;20083;-72
2023/08/21 06:56:19;;;;;;;4.50;1.40;;;;;;;;;;5030285;28;20071;-74
2023/08/21 06:58:44;;;;;;;0.40;0.40;;;;;;;;;;5027138;28;20021;-72
2023/08/21 07:01:10;;;;;;;0.40;0.40;;;;;;;;;;5033547;28;20470;-74
2023/08/21 07:03:35;;;;;;;0.30;0.30;;;;;;;;;;5029909;28;20036;-73
2023/08/21 07:06:02;;;;;;;0.38;0.38;;;;;;;;;;5011884;28;20033;-72
2023/08/21 07:08:28;;;;;;;0.43;0.43;;;;;;;;;;5029882;28;20029;-74
2023/08/21 07:10:54;;;;;;;0.82;0.82;;;;;;;;;;5028379;28;20389;-76
2023/08/21 07:13:20;;;;;;;1.17;1.08;;;;;;;;;;5029585;28;20026;-73
2023/08/21 07:15:48;;;;;;;0.30;0.30;;;;;;;;;;5029919;28;20041;-77
2023/08/21 07:18:14;;;;;;;0.40;0.40;;;;;;;;;;5029923;28;20036;-75
2023/08/21 07:20:40;;;;;;;0.50;0.50;;;;;;;;;;5029848;28;20038;-74
2023/08/21 07:23:06;;;;;;;0.82;0.82;;;;;;;;;;5029208;28;20034;-73
2023/08/21 07:25:31;;;;;;;0.55;0.55;;;;;;;;;;5029450;28;20056;-73
2023/08/21 07:27:58;;;;;;;0.60;0.60;;;;;;;;;;5028907;28;20041;-73
2023/08/21 07:30:24;;;;;;;1.75;1.10;;;;;;;;;;5027303;28;20139;-73
2023/08/21 07:32:50;;;;;;;0.50;0.50;;;;;;;;;;5029237;28;20491;-73
2023/08/21 07:35:15;;;;;;;0.82;0.82;;;;;;;;;;5028528;28;20033;-74
2023/08/21 07:37:44;;;;;;;0.47;0.47;;;;;;;;;;5029321;28;20129;-75
2023/08/21 07:40:10;;;;;;;0.32;0.32;;;;;;;;;;5010902;28;20041;-75
2023/08/21 07:42:36;;;;;;;0.40;0.40;;;;;;;;;;5031104;28;20029;-73
2023/08/21 07:45:02;;;;;;;0.80;0.70;;;;;;;;;;5029678;28;20036;-73
2023/08/21 07:47:28;;;;;;;0.40;0.40;;;;;;;;;;5029061;28;20037;-73
2023/08/21 07:49:53;;;;;;;0.60;0.60;;;;;;;;;;5029000;28;20026;-74
2023/08/21 07:52:19;;;;;;;0.55;0.55;;;;;;;;;;5021276;28;20032;-75
2023/08/21 07:54:45;;;;;;;0.60;0.60;;;;;;;;;;5009724;28;20065;-74
2023/08/21 07:57:11;;;;;;;0.63;0.63;;;;;;;;;;5009839;28;20556;-70
2023/08/21 07:59:37;;;;;;;0.65;0.65;;;;;;;;;;5024456;28;20485;-78
2023/08/21 08:02:04;;;;;;;0.50;0.50;;;;;;;;;;5032745;28;20075;-74
2023/08/21 08:04:29;;;;;;;1.10;1.00;;;;;;;;;;5034739;28;20033;-72
2023/08/21 08:06:56;;;;;;;0.38;0.38;;;;;;;;;;5023447;28;20056;-74
2023/08/21 08:09:21;;;;;;;0.70;0.70;;;;;;;;;;5048367;28;20029;-74
2023/08/21 08:11:47;;;;;;;3.53;3.33;;;;;;;;;;5048198;28;20473;-73
2023/08/21 08:14:13;;;;;;;0.50;0.50;;;;;;;;;;5049142;28;20041;-78
2023/08/21 08:16:38;;;;;;;0.75;0.75;;;;;;;;;;5048905;28;20043;-74
2023/08/21 08:19:04;;;;;;;0.47;0.47;;;;;;;;;;5047602;28;20124;-74
2023/08/21 08:21:30;;;;;;;0.40;0.40;;;;;;;;;;5046701;28;20448;-75
2023/08/21 08:23:56;;;;;;;0.47;0.47;;;;;;;;;;5046685;28;20392;-74
2023/08/21 08:26:21;;;;;;;0.75;0.75;;;;;;;;;;5046691;28;20041;-75
2023/08/21 08:28:47;;;;;;;0.63;0.63;;;;;;;;;;5028784;28;20040;-74
2023/08/21 08:31:16;;;;;;;0.40;0.40;;;;;;;;;;5046560;28;20048;-74
2023/08/21 08:33:42;;;;;;;0.93;0.77;;;;;;;;;;5047467;28;20029;-75
2023/08/21 08:36:09;;;;;;;0.70;0.70;;;;;;;;;;5048474;28;20044;-75
2023/08/21 08:38:34;;;;;;;0.57;0.57;;;;;;;;;;5048288;28;20040;-73
2023/08/21 08:41:02;;;;;;;0.60;0.60;;;;;;;;;;5048476;28;20393;-73
2023/08/21 08:43:27;;;;;;;0.50;0.50;;;;;;;;;;5048466;28;20041;-74
2023/08/21 08:45:55;;;;;;;0.40;0.40;;;;;;;;;;5049815;28;20037;-73
2023/08/21 08:48:21;;;;;;;0.47;0.47;;;;;;;;;;5051929;28;20392;-73
2023/08/21 08:50:47;;;;;;;1.73;1.58;;;;;;;;;;5051767;28;20528;-73
2023/08/21 08:53:13;;;;;;;0.75;0.75;;;;;;;;;;5051918;28;20120;-74
2023/08/21 08:55:39;;;;;;;0.47;0.47;;;;;;;;;;5033945;28;20178;-73
2023/08/21 08:58:05;;;;;;;0.75;0.75;;;;;;;;;;5051506;28;20465;-73
2023/08/21 09:00:31;;;;;;;0.47;0.47;;;;;;;;;;5034056;28;20032;-73
2023/08/21 09:02:57;;;;;;;0.50;0.50;;;;;;;;;;5034053;28;20392;-74
2023/08/21 09:05:23;;;;;;;2.45;2.22;;;;;;;;;;5051790;28;20033;-73
2023/08/21 09:08:07;;;;;;;0.60;0.60;;;;;;;;;;5051002;28;20036;-73
2023/08/21 09:10:33;;;;;;;1.15;1.02;;;;;;;;;;5052124;28;20430;-73
2023/08/21 09:13:01;;;;;;;1.35;1.27;;;;;;;;;;5051821;28;20120;-76
2023/08/21 09:15:27;;;;;;;0.88;0.88;;;;;;;;;;5051556;28;20045;-74
2023/08/21 09:17:54;;;;;;;0.70;0.70;;;;;;;;;;5051294;28;20075;-73
2023/08/21 09:20:19;;;;;;;1.05;0.98;;;;;;;;;;5051220;28;20029;-74
2023/08/21 09:22:52;;;;;;;0.47;0.47;;;;;;;;;;5051320;28;20388;-74
2023/08/21 09:25:18;;;;;;;0.50;0.50;;;;;;;;;;5051672;28;20468;-73
2023/08/21 09:27:44;;;;;;;0.50;0.50;;;;;;;;;;5051144;28;20143;-74
2023/08/21 09:30:12;;;;;;;0.60;0.60;;;;;;;;;;5051487;28;20029;-73
2023/08/21 09:32:54;;;;;;;0.70;0.70;;;;;;;;;;5051237;28;20025;-74
2023/08/21 09:35:19;;;;;;;0.55;0.55;;;;;;;;;;5033587;28;20037;-73
2023/08/21 09:37:46;;;;;;;1.00;1.00;;;;;;;;;;5050908;28;20031;-74
2023/08/21 09:40:12;;;;;;;0.70;0.70;;;;;;;;;;5051559;28;20389;-74
2023/08/21 09:42:41;;;;;;;0.52;0.52;;;;;;;;;;5051040;28;20112;-74
2023/08/21 09:45:06;;;;;;;2.60;2.20;;;;;;;;;;5033231;28;20506;-74
2023/08/21 09:47:33;;;;;;;5.97;1.73;;;;;;;;;;5050745;28;20041;-74
2023/08/21 09:50:00;;;;;;;0.80;0.80;;;;;;;;;;5032897;28;20095;-75
2023/08/21 09:52:26;;;;;;;0.60;0.60;;;;;;;;;;5050731;28;20037;-74
2023/08/21 09:54:56;;;;;;;0.57;0.57;;;;;;;;;;5032829;28;20037;-74
2023/08/21 09:57:23;;;;;;;1.77;1.15;;;;;;;;;;5050553;28;20056;-77
2023/08/21 09:59:52;;;;;;;0.90;0.90;;;;;;;;;;5050509;28;20449;-74
2023/08/21 10:02:18;;;;;;;0.50;0.50;;;;;;;;;;5020656;28;20029;-74
2023/08/21 10:04:45;;;;;;;0.60;0.60;;;;;;;;;;5029379;28;20046;-73
2023/08/21 10:07:12;;;;;;;1.05;1.05;;;;;;;;;;5030134;28;20140;-75
2023/08/21 10:09:40;;;;;;;0.63;0.63;;;;;;;;;;5029777;28;20045;-75
2023/08/21 10:12:08;;;;;;;2.03;1.85;;;;;;;;;;5029432;28;20136;-78
2023/08/21 10:14:35;;;;;;;2.45;1.92;;;;;;;;;;5028449;28;20037;-74
2023/08/21 10:17:01;;;;;;;1.35;1.25;;;;;;;;;;5028609;28;20068;-74
2023/08/21 10:19:33;;;;;;;0.57;0.57;;;;;;;;;;5028641;28;20469;-74
2023/08/21 10:21:59;;;;;;;0.80;0.80;;;;;;;;;;5011357;28;20397;-73
2023/08/21 10:24:36;;;;;;;0.60;0.60;;;;;;;;;;5033869;28;20093;-74
2023/08/21 10:27:02;;;;;;;0.57;0.57;;;;;;;;;;5037110;28;20382;-73
2023/08/21 10:29:28;;;;;;;1.05;1.05;;;;;;;;;;4996040;28;20062;-74
2023/08/21 10:32:04;;;;;;;0.88;0.88;;;;;;;;;;5051101;28;20033;-75
2023/08/21 10:34:34;;;;;;;1.02;1.02;;;;;;;;;;5032117;28;20110;-73
2023/08/21 10:37:00;;;;;;;1.02;1.02;;;;;;;;;;5032433;28;20051;-75
2023/08/21 10:39:27;;;;;;;3.97;2.22;;;;;;;;;;5032838;28;20030;-77
2023/08/21 10:41:53;;;;;;;0.70;0.70;;;;;;;;;;5028385;28;20068;-73
2023/08/21 10:44:33;;;;;;;0.50;0.50;;;;;;;;;;5028103;28;20044;-77
2023/08/21 10:47:17;;;;;;;0.60;0.60;;;;;;;;;;5029907;28;20481;-74
2023/08/21 10:49:50;;;;;;;0.50;0.50;;;;;;;;;;5029373;28;20040;-75
2023/08/21 10:52:35;;;;;;;1.00;1.00;;;;;;;;;;5011621;28;20485;-74
2023/08/21 10:55:01;;;;;;;1.02;1.02;;;;;;;;;;5023756;28;20068;-73
2023/08/21 10:57:28;;;;;;;1.80;1.55;;;;;;;;;;5023835;28;20075;-72
2023/08/21 10:59:57;;;;;;;0.55;0.55;;;;;;;;;;5016046;28;20033;-72
2023/08/21 11:02:28;;;;;;;1.13;0.90;;;;;;;;;;5016709;28;20026;-73
2023/08/21 11:04:53;;;;;;;1.17;1.08;;;;;;;;;;5021564;28;20491;-73
2023/08/21 11:07:19;;;;;;;2.72;2.47;;;;;;;;;;5028263;28;20389;-75
2023/08/21 11:09:45;;;;;;;1.40;1.30;;;;;;;;;;5026431;28;20051;-73
2023/08/21 11:12:15;;;;;;;1.70;1.60;;;;;;;;;;5029506;28;20034;-71
2023/08/21 11:14:41;;;;;;;2.67;2.15;;;;;;;;;;5029854;28;20041;-72
2023/08/21 11:17:08;;;;;;;2.05;1.45;;;;;;;;;;5028554;28;20081;-72
2023/08/21 11:19:34;;;;;;;0.90;0.85;;;;;;;;;;5028723;28;20041;-73
2023/08/21 11:22:03;;;;;;;2.42;1.65;;;;;;;;;;5028137;28;20041;-72
2023/08/21 11:24:39;;;;;;;1.90;1.75;;;;;;;;;;5029535;28;20029;-72
2023/08/21 11:27:05;;;;;;;3.35;1.25;;;;;;;;;;5011181;28;20037;-72
2023/08/21 11:29:41;;;;;;;2.92;1.30;;;;;;;;;;5029280;28;20049;-73
2023/08/21 11:32:12;;;;;;;1.70;1.60;;;;;;;;;;5029661;28;20037;-75
2023/08/21 11:34:38;;;;;;;1.33;1.23;;;;;;;;;;5032685;28;20028;-74
2023/08/21 11:37:04;;;;;;;0.95;0.85;;;;;;;;;;5013261;28;20033;-72
2023/08/21 11:39:43;;;;;;;2.75;1.80;;;;;;;;;;5029697;28;20048;-72
2023/08/21 11:42:13;;;;;;;2.35;2.15;;;;;;;;;;5029068;28;20048;-73
2023/08/21 11:44:44;;;;;;;1.30;0.90;;;;;;;;;;5029063;28;20044;-72
2023/08/21 11:47:09;;;;;;;1.33;1.23;;;;;;;;;;5033569;28;20500;-73
2023/08/21 11:49:39;;;;;;;1.50;1.40;;;;;;;;;;5029056;28;20061;-73
2023/08/21 11:52:05;;;;;;;2.45;2.13;;;;;;;;;;5029094;28;20384;-73
2023/08/21 11:54:35;;;;;;;1.02;1.00;;;;;;;;;;5011355;28;20021;-75
2023/08/21 11:57:05;;;;;;;1.05;0.95;;;;;;;;;;5031282;28;20056;-73
2023/08/21 11:59:31;;;;;;;2.20;1.60;;;;;;;;;;4994948;28;20033;-74
2023/08/21 12:01:56;;;;;;;3.95;2.13;;;;;;;;;;5019644;28;20030;-73
2023/08/21 12:04:22;;;;;;;2.42;2.00;;;;;;;;;;5023992;28;20480;-72
2023/08/21 12:06:48;;;;;;;1.90;1.73;;;;;;;;;;5023949;28;20504;-73
2023/08/21 12:09:13;;;;;;;1.23;1.13;;;;;;;;;;5009558;28;20451;-72
2023/08/21 12:11:39;;;;;;;1.33;1.23;;;;;;;;;;5027761;28;20465;-73
2023/08/21 12:14:05;;;;;;;1.00;1.00;;;;;;;;;;5011134;28;20037;-73
2023/08/21 12:16:31;;;;;;;1.77;1.65;;;;;;;;;;5028817;28;20048;-73
2023/08/21 12:18:57;;;;;;;2.05;1.80;;;;;;;;;;5027970;28;20029;-73
2023/08/21 12:21:23;;;;;;;3.72;2.75;;;;;;;;;;5028182;28;20140;-73
2023/08/21 12:23:49;;;;;;;1.77;1.63;;;;;;;;;;5010623;28;20104;-73
2023/08/21 12:26:20;;;;;;;1.55;1.42;;;;;;;;;;5025346;28;20017;-74
2023/08/21 12:28:49;;;;;;;1.55;1.45;;;;;;;;;;5028786;28;20481;-73
2023/08/21 12:31:15;;;;;;;2.22;1.88;;;;;;;;;;5028712;28;20044;-73
2023/08/21 12:33:41;;;;;;;2.00;1.83;;;;;;;;;;5027501;28;20037;-72
2023/08/21 12:36:08;;;;;;;3.20;1.75;;;;;;;;;;5027719;28;20033;-73
2023/08/21 12:38:34;;;;;;;1.65;1.55;;;;;;;;;;5021205;28;20044;-72
2023/08/21 12:41:01;;;;;;;3.28;2.70;;;;;;;;;;5027784;28;20120;-71
2023/08/21 12:43:26;;;;;;;1.30;1.20;;;;;;;;;;5020029;28;20117;-72
2023/08/21 12:45:52;;;;;;;1.25;1.08;;;;;;;;;;5018520;28;20433;-73
2023/08/21 12:48:17;;;;;;;1.42;1.33;;;;;;;;;;5028337;28;20038;-72
2023/08/21 12:50:43;;;;;;;4.85;1.58;;;;;;;;;;5028633;28;20053;-74
2023/08/21 12:53:09;;;;;;;1.73;1.48;;;;;;;;;;5028439;28;20052;-76
2023/08/21 12:55:35;;;;;;;1.52;1.42;;;;;;;;;;5028110;28;20051;-74
2023/08/21 12:58:01;;;;;;;1.17;1.08;;;;;;;;;;5028062;28;20465;-74
2023/08/21 13:00:27;;;;;;;1.70;1.42;;;;;;;;;;5028226;28;20112;-74
2023/08/21 13:02:52;;;;;;;5.40;2.10;;;;;;;;;;5028291;28;20076;-74
2023/08/21 13:05:18;;;;;;;1.88;1.73;;;;;;;;;;5024990;28;20025;-74
2023/08/21 13:07:44;;;;;;;3.10;1.77;;;;;;;;;;5022009;28;20437;-74
2023/08/21 13:10:09;;;;;;;6.78;2.65;;;;;;;;;;5013171;28;20080;-74
2023/08/21 13:12:36;;;;;;;1.58;1.48;;;;;;;;;;5008787;28;20049;-73
2023/08/21 13:15:02;;;;;;;1.15;1.10;;;;;;;;;;5008590;28;20025;-73
2023/08/21 13:17:28;;;;;;;1.67;1.55;;;;;;;;;;5008603;28;20371;-73
2023/08/21 13:19:54;;;;;;;1.73;1.50;;;;;;;;;;5004695;28;20025;-75
2023/08/21 13:22:20;;;;;;;1.20;1.10;;;;;;;;;;5022674;28;20041;-73
2023/08/21 13:24:45;;;;;;;2.65;2.00;;;;;;;;;;5028231;28;20037;-74
2023/08/21 13:27:11;;;;;;;2.72;1.90;;;;;;;;;;5028128;28;20112;-73
2023/08/21 13:29:37;;;;;;;2.25;1.52;;;;;;;;;;5021025;28;20057;-71
2023/08/21 13:32:03;;;;;;;1.98;1.77;;;;;;;;;;5028273;28;20087;-72
2023/08/21 13:34:28;;;;;;;2.28;1.92;;;;;;;;;;5031290;28;20417;-74
2023/08/21 13:36:54;;;;;;;1.70;1.60;;;;;;;;;;5010157;28;20073;-74
2023/08/21 13:39:21;;;;;;;2.20;1.98;;;;;;;;;;5034588;28;20501;-73
2023/08/21 13:41:48;;;;;;;1.55;1.38;;;;;;;;;;5012196;28;20036;-73
2023/08/21 13:44:14;;;;;;;2.75;2.28;;;;;;;;;;5030308;28;20029;-71
2023/08/21 13:46:40;;;;;;;2.05;1.83;;;;;;;;;;5031028;28;20084;-72
2023/08/21 13:49:06;;;;;;;2.47;1.98;;;;;;;;;;5030959;28;20108;-73
2023/08/21 13:51:32;;;;;;;1.80;1.30;;;;;;;;;;5013375;28;20485;-72
2023/08/21 13:53:58;;;;;;;1.60;1.42;;;;;;;;;;5031540;28;20411;-72
2023/08/21 13:56:24;;;;;;;2.97;1.88;;;;;;;;;;5031108;28;20100;-73
2023/08/21 13:58:49;;;;;;;1.73;1.63;;;;;;;;;;5031306;28;20047;-72
2023/08/21 14:01:16;;;;;;;1.42;1.33;;;;;;;;;;5028424;28;20084;-72
2023/08/21 14:03:42;;;;;;;1.60;1.50;;;;;;;;;;5029181;28;20045;-73
2023/08/21 14:06:11;;;;;;;2.88;2.25;;;;;;;;;;5029596;28;20037;-77
2023/08/21 14:08:37;;;;;;;1.80;1.70;;;;;;;;;;5013369;28;20046;-75
2023/08/21 14:11:03;;;;;;;1.02;0.93;;;;;;;;;;5030820;28;20073;-72
2023/08/21 14:13:28;;;;;;;2.50;2.30;;;;;;;;;;5030908;28;20437;-72
2023/08/21 14:15:54;;;;;;;1.42;1.33;;;;;;;;;;5022814;28;20033;-72
2023/08/21 14:18:20;;;;;;;1.30;1.10;;;;;;;;;;5010657;28;20044;-72
2023/08/21 14:20:45;;;;;;;1.20;1.13;;;;;;;;;;5008614;28;20044;-73
2023/08/21 14:23:11;;;;;;;5.15;4.75;;;;;;;;;;5006652;28;20040;-73
2023/08/21 14:25:37;;;;;;;3.60;2.55;;;;;;;;;;5006357;28;20310;-73
2023/08/21 14:28:03;;;;;;;2.08;1.58;;;;;;;;;;5005002;28;20282;-75
2023/08/21 14:30:29;;;;;;;1.70;1.30;;;;;;;;;;5005840;28;20042;-73
2023/08/21 14:32:55;;;;;;;1.33;1.23;;;;;;;;;;5005460;28;20059;-74
2023/08/21 14:35:20;;;;;;;2.03;1.83;;;;;;;;;;5003183;28;20559;-73
2023/08/21 14:37:46;;;;;;;1.23;1.13;;;;;;;;;;5008728;28;20481;-74
2023/08/21 14:40:12;;;;;;;0.80;0.80;;;;;;;;;;5009299;28;20171;-73